sensor_id;sensor_type;location;lat;lon;timestamp;P1;durP1;ratioP1;P2;durP2;ratioP2
24801;SDS011;12898;50.520;12.152;2023-05-10T00:02:09;6.00;;;3.55;;
24801;SDS011;12898;50.520;12.152;2023-05-10T00:04:35;7.32;;;3.78;;
24801;SDS011;12898;50.520;12.152;2023-05-10T00:07:00;7.07;;;3.70;;
24801;SDS011;12898;50.520;12.152;2023-05-10T00:09:26;8.48;;;3.40;;
24801;SDS011;12898;50.520;12.152;2023-05-10T00:11:52;5.55;;;3.50;;
24801;SDS011;12898;50.520;12.152;2023-05-10T00:14:18;10.20;;;4.00;;
24801;SDS011;12898;50.520;12.152;2023-05-10T00:16:44;5.03;;;3.22;;
24801;SDS011;12898;50.520;12.152;2023-05-10T00:19:09;8.20;;;3.92;;
24801;SDS011;12898;50.520;12.152;2023-05-10T00:21:35;5.97;;;3.85;;
24801;SDS011;12898;50.520;12.152;2023-05-10T00:24:01;6.55;;;3.50;;
24801;SDS011;12898;50.520;12.152;2023-05-10T00:26:27;6.55;;;3.65;;
24801;SDS011;12898;50.520;12.152;2023-05-10T00:28:52;8.05;;;3.67;;
24801;SDS011;12898;50.520;12.152;2023-05-10T00:31:18;6.85;;;3.58;;
24801;SDS011;12898;50.520;12.152;2023-05-10T00:33:44;7.63;;;4.05;;
24801;SDS011;12898;50.520;12.152;2023-05-10T00:36:10;10.23;;;4.43;;
24801;SDS011;12898;50.520;12.152;2023-05-10T00:38:36;6.93;;;3.55;;
24801;SDS011;12898;50.520;12.152;2023-05-10T00:41:02;6.25;;;3.63;;
24801;SDS011;12898;50.520;12.152;2023-05-10T00:43:28;8.27;;;4.10;;
24801;SDS011;12898;50.520;12.152;2023-05-10T00:45:54;5.68;;;3.58;;
24801;SDS011;12898;50.520;12.152;2023-05-10T00:48:20;7.25;;;3.75;;
24801;SDS011;12898;50.520;12.152;2023-05-10T00:50:46;8.30;;;3.65;;
24801;SDS011;12898;50.520;12.152;2023-05-10T00:53:12;7.50;;;3.63;;
24801;SDS011;12898;50.520;12.152;2023-05-10T00:55:39;7.03;;;3.67;;
24801;SDS011;12898;50.520;12.152;2023-05-10T00:58:05;6.13;;;3.70;;
24801;SDS011;12898;50.520;12.152;2023-05-10T01:00:32;5.85;;;3.60;;
24801;SDS011;12898;50.520;12.152;2023-05-10T01:02:58;7.10;;;3.75;;
24801;SDS011;12898;50.520;12.152;2023-05-10T01:05:24;7.00;;;3.28;;
24801;SDS011;12898;50.520;12.152;2023-05-10T01:07:52;7.00;;;3.55;;
24801;SDS011;12898;50.520;12.152;2023-05-10T01:10:17;8.18;;;3.78;;
24801;SDS011;12898;50.520;12.152;2023-05-10T01:12:44;9.43;;;4.50;;
24801;SDS011;12898;50.520;12.152;2023-05-10T01:15:12;7.20;;;3.63;;
24801;SDS011;12898;50.520;12.152;2023-05-10T01:17:39;8.15;;;4.22;;
24801;SDS011;12898;50.520;12.152;2023-05-10T01:20:07;7.30;;;4.10;;
24801;SDS011;12898;50.520;12.152;2023-05-10T01:36:15;6.20;;;3.65;;
24801;SDS011;12898;50.520;12.152;2023-05-10T01:39:01;6.60;;;3.88;;
24801;SDS011;12898;50.520;12.152;2023-05-10T01:41:49;8.77;;;3.88;;
24801;SDS011;12898;50.520;12.152;2023-05-10T01:47:07;7.25;;;3.70;;
24801;SDS011;12898;50.520;12.152;2023-05-10T01:49:37;9.32;;;4.10;;
24801;SDS011;12898;50.520;12.152;2023-05-10T01:52:12;7.57;;;4.00;;
24801;SDS011;12898;50.520;12.152;2023-05-10T01:54:44;6.15;;;3.65;;
24801;SDS011;12898;50.520;12.152;2023-05-10T01:57:18;9.00;;;4.00;;
24801;SDS011;12898;50.520;12.152;2023-05-10T01:59:45;9.23;;;3.42;;
24801;SDS011;12898;50.520;12.152;2023-05-10T02:02:15;6.88;;;3.92;;
24801;SDS011;12898;50.520;12.152;2023-05-10T02:04:44;13.18;;;4.03;;
24801;SDS011;12898;50.520;12.152;2023-05-10T02:07:12;8.20;;;4.20;;
24801;SDS011;12898;50.520;12.152;2023-05-10T02:09:39;8.07;;;3.97;;
24801;SDS011;12898;50.520;12.152;2023-05-10T02:12:06;8.77;;;3.88;;
24801;SDS011;12898;50.520;12.152;2023-05-10T02:14:34;9.10;;;4.38;;
24801;SDS011;12898;50.520;12.152;2023-05-10T02:17:02;7.25;;;4.20;;
24801;SDS011;12898;50.520;12.152;2023-05-10T02:19:31;7.38;;;4.22;;
24801;SDS011;12898;50.520;12.152;2023-05-10T02:21:58;6.07;;;3.95;;
24801;SDS011;12898;50.520;12.152;2023-05-10T02:24:25;8.07;;;4.28;;
24801;SDS011;12898;50.520;12.152;2023-05-10T02:26:53;8.40;;;4.60;;
24801;SDS011;12898;50.520;12.152;2023-05-10T02:29:23;6.63;;;3.88;;
24801;SDS011;12898;50.520;12.152;2023-05-10T02:31:51;8.73;;;4.53;;
24801;SDS011;12898;50.520;12.152;2023-05-10T02:34:20;7.13;;;3.97;;
24801;SDS011;12898;50.520;12.152;2023-05-10T02:36:47;9.82;;;4.97;;
24801;SDS011;12898;50.520;12.152;2023-05-10T02:39:15;7.97;;;4.20;;
24801;SDS011;12898;50.520;12.152;2023-05-10T02:41:44;8.25;;;4.07;;
24801;SDS011;12898;50.520;12.152;2023-05-10T02:44:11;5.90;;;3.75;;
24801;SDS011;12898;50.520;12.152;2023-05-10T02:46:42;8.57;;;4.55;;
24801;SDS011;12898;50.520;12.152;2023-05-10T02:49:08;6.40;;;3.88;;
24801;SDS011;12898;50.520;12.152;2023-05-10T02:51:35;10.30;;;4.30;;
24801;SDS011;12898;50.520;12.152;2023-05-10T02:54:10;9.27;;;4.45;;
24801;SDS011;12898;50.520;12.152;2023-05-10T02:56:42;7.40;;;3.80;;
24801;SDS011;12898;50.520;12.152;2023-05-10T02:59:12;8.77;;;4.20;;
24801;SDS011;12898;50.520;12.152;2023-05-10T03:01:38;9.20;;;4.50;;
24801;SDS011;12898;50.520;12.152;2023-05-10T03:04:04;7.75;;;4.57;;
24801;SDS011;12898;50.520;12.152;2023-05-10T03:06:30;6.78;;;4.35;;
24801;SDS011;12898;50.520;12.152;2023-05-10T03:08:56;8.55;;;4.40;;
24801;SDS011;12898;50.520;12.152;2023-05-10T03:11:35;7.32;;;4.05;;
24801;SDS011;12898;50.520;12.152;2023-05-10T03:17:22;8.88;;;4.38;;
24801;SDS011;12898;50.520;12.152;2023-05-10T03:19:56;8.63;;;4.03;;
24801;SDS011;12898;50.520;12.152;2023-05-10T03:22:30;6.90;;;3.85;;
24801;SDS011;12898;50.520;12.152;2023-05-10T03:25:04;9.77;;;4.22;;
24801;SDS011;12898;50.520;12.152;2023-05-10T03:27:33;7.38;;;4.13;;
24801;SDS011;12898;50.520;12.152;2023-05-10T03:30:01;9.80;;;4.20;;
24801;SDS011;12898;50.520;12.152;2023-05-10T03:32:28;6.68;;;3.92;;
24801;SDS011;12898;50.520;12.152;2023-05-10T03:34:56;9.35;;;4.93;;
24801;SDS011;12898;50.520;12.152;2023-05-10T03:37:22;8.32;;;4.38;;
24801;SDS011;12898;50.520;12.152;2023-05-10T03:39:48;9.70;;;4.53;;
24801;SDS011;12898;50.520;12.152;2023-05-10T03:42:13;9.35;;;4.38;;
24801;SDS011;12898;50.520;12.152;2023-05-10T03:44:39;7.72;;;4.35;;
24801;SDS011;12898;50.520;12.152;2023-05-10T03:47:05;8.45;;;4.22;;
24801;SDS011;12898;50.520;12.152;2023-05-10T03:49:31;6.50;;;4.22;;
24801;SDS011;12898;50.520;12.152;2023-05-10T03:51:57;7.30;;;4.10;;
24801;SDS011;12898;50.520;12.152;2023-05-10T03:54:22;7.57;;;4.03;;
24801;SDS011;12898;50.520;12.152;2023-05-10T03:56:48;7.90;;;4.10;;
24801;SDS011;12898;50.520;12.152;2023-05-10T03:59:14;9.02;;;3.85;;
24801;SDS011;12898;50.520;12.152;2023-05-10T04:01:39;6.85;;;4.28;;
24801;SDS011;12898;50.520;12.152;2023-05-10T04:04:05;7.85;;;3.88;;
24801;SDS011;12898;50.520;12.152;2023-05-10T04:06:31;7.57;;;4.03;;
24801;SDS011;12898;50.520;12.152;2023-05-10T04:08:57;8.50;;;4.55;;
24801;SDS011;12898;50.520;12.152;2023-05-10T04:11:24;8.00;;;4.13;;
24801;SDS011;12898;50.520;12.152;2023-05-10T04:13:50;6.30;;;3.88;;
24801;SDS011;12898;50.520;12.152;2023-05-10T04:16:16;6.10;;;3.85;;
24801;SDS011;12898;50.520;12.152;2023-05-10T04:18:41;6.53;;;3.80;;
24801;SDS011;12898;50.520;12.152;2023-05-10T04:21:11;7.63;;;4.05;;
24801;SDS011;12898;50.520;12.152;2023-05-10T04:23:38;7.57;;;4.40;;
24801;SDS011;12898;50.520;12.152;2023-05-10T04:26:04;7.93;;;4.13;;
24801;SDS011;12898;50.520;12.152;2023-05-10T04:28:29;10.20;;;5.03;;
24801;SDS011;12898;50.520;12.152;2023-05-10T04:31:05;6.95;;;4.18;;
24801;SDS011;12898;50.520;12.152;2023-05-10T04:33:34;9.15;;;4.40;;
24801;SDS011;12898;50.520;12.152;2023-05-10T04:36:00;8.60;;;4.40;;
24801;SDS011;12898;50.520;12.152;2023-05-10T04:38:26;6.78;;;4.15;;
24801;SDS011;12898;50.520;12.152;2023-05-10T04:40:53;9.48;;;4.53;;
24801;SDS011;12898;50.520;12.152;2023-05-10T04:43:18;10.48;;;4.10;;
24801;SDS011;12898;50.520;12.152;2023-05-10T04:45:45;7.30;;;4.15;;
24801;SDS011;12898;50.520;12.152;2023-05-10T04:48:11;8.30;;;4.07;;
24801;SDS011;12898;50.520;12.152;2023-05-10T04:50:37;7.43;;;4.22;;
24801;SDS011;12898;50.520;12.152;2023-05-10T04:53:04;10.80;;;4.47;;
24801;SDS011;12898;50.520;12.152;2023-05-10T04:55:30;11.10;;;4.20;;
24801;SDS011;12898;50.520;12.152;2023-05-10T04:57:55;7.25;;;3.92;;
24801;SDS011;12898;50.520;12.152;2023-05-10T05:00:22;7.28;;;4.05;;
24801;SDS011;12898;50.520;12.152;2023-05-10T05:02:48;8.73;;;4.50;;
24801;SDS011;12898;50.520;12.152;2023-05-10T05:05:14;9.93;;;4.40;;
24801;SDS011;12898;50.520;12.152;2023-05-10T05:07:40;7.40;;;3.60;;
24801;SDS011;12898;50.520;12.152;2023-05-10T05:10:06;11.25;;;4.82;;
24801;SDS011;12898;50.520;12.152;2023-05-10T05:12:33;7.88;;;4.10;;
24801;SDS011;12898;50.520;12.152;2023-05-10T05:15:00;8.98;;;4.38;;
24801;SDS011;12898;50.520;12.152;2023-05-10T05:17:26;7.97;;;4.50;;
24801;SDS011;12898;50.520;12.152;2023-05-10T05:19:55;7.03;;;4.13;;
24801;SDS011;12898;50.520;12.152;2023-05-10T05:22:21;6.18;;;4.05;;
24801;SDS011;12898;50.520;12.152;2023-05-10T05:24:53;7.72;;;4.40;;
24801;SDS011;12898;50.520;12.152;2023-05-10T05:27:19;10.25;;;4.25;;
24801;SDS011;12898;50.520;12.152;2023-05-10T05:29:49;7.07;;;3.70;;
24801;SDS011;12898;50.520;12.152;2023-05-10T05:32:17;7.35;;;3.85;;
24801;SDS011;12898;50.520;12.152;2023-05-10T05:34:44;8.02;;;4.25;;
24801;SDS011;12898;50.520;12.152;2023-05-10T05:37:14;9.13;;;4.35;;
24801;SDS011;12898;50.520;12.152;2023-05-10T05:39:41;6.82;;;3.80;;
24801;SDS011;12898;50.520;12.152;2023-05-10T05:42:11;9.80;;;4.80;;
24801;SDS011;12898;50.520;12.152;2023-05-10T05:44:38;8.63;;;4.45;;
24801;SDS011;12898;50.520;12.152;2023-05-10T05:47:04;10.48;;;4.88;;
24801;SDS011;12898;50.520;12.152;2023-05-10T05:49:30;6.93;;;4.25;;
24801;SDS011;12898;50.520;12.152;2023-05-10T05:52:00;9.07;;;4.18;;
24801;SDS011;12898;50.520;12.152;2023-05-10T05:54:28;7.85;;;4.38;;
24801;SDS011;12898;50.520;12.152;2023-05-10T05:56:55;11.27;;;4.63;;
24801;SDS011;12898;50.520;12.152;2023-05-10T05:59:22;8.98;;;4.45;;
24801;SDS011;12898;50.520;12.152;2023-05-10T06:01:49;9.77;;;4.28;;
24801;SDS011;12898;50.520;12.152;2023-05-10T06:04:15;8.77;;;4.32;;
24801;SDS011;12898;50.520;12.152;2023-05-10T06:06:41;7.15;;;3.90;;
24801;SDS011;12898;50.520;12.152;2023-05-10T06:09:07;5.82;;;3.97;;
24801;SDS011;12898;50.520;12.152;2023-05-10T06:11:33;8.05;;;4.32;;
24801;SDS011;12898;50.520;12.152;2023-05-10T06:13:59;9.65;;;5.03;;
24801;SDS011;12898;50.520;12.152;2023-05-10T06:16:26;10.48;;;4.65;;
24801;SDS011;12898;50.520;12.152;2023-05-10T06:18:52;6.85;;;3.97;;
24801;SDS011;12898;50.520;12.152;2023-05-10T06:21:18;7.63;;;4.95;;
24801;SDS011;12898;50.520;12.152;2023-05-10T06:23:44;8.23;;;4.50;;
24801;SDS011;12898;50.520;12.152;2023-05-10T06:26:10;8.43;;;4.32;;
24801;SDS011;12898;50.520;12.152;2023-05-10T06:28:35;10.55;;;5.15;;
24801;SDS011;12898;50.520;12.152;2023-05-10T06:31:04;14.80;;;7.18;;
24801;SDS011;12898;50.520;12.152;2023-05-10T06:33:30;16.45;;;8.32;;
24801;SDS011;12898;50.520;12.152;2023-05-10T06:35:56;13.18;;;6.25;;
24801;SDS011;12898;50.520;12.152;2023-05-10T06:38:22;10.50;;;5.55;;
24801;SDS011;12898;50.520;12.152;2023-05-10T06:40:48;9.05;;;5.05;;
24801;SDS011;12898;50.520;12.152;2023-05-10T06:43:13;12.10;;;6.18;;
24801;SDS011;12898;50.520;12.152;2023-05-10T06:45:39;12.35;;;6.60;;
24801;SDS011;12898;50.520;12.152;2023-05-10T06:48:06;12.63;;;6.68;;
24801;SDS011;12898;50.520;12.152;2023-05-10T06:50:32;16.98;;;7.05;;
24801;SDS011;12898;50.520;12.152;2023-05-10T06:52:58;11.30;;;6.07;;
24801;SDS011;12898;50.520;12.152;2023-05-10T06:55:24;9.80;;;5.90;;
24801;SDS011;12898;50.520;12.152;2023-05-10T06:57:51;9.45;;;5.88;;
24801;SDS011;12898;50.520;12.152;2023-05-10T07:00:17;11.95;;;6.40;;
24801;SDS011;12898;50.520;12.152;2023-05-10T07:02:44;9.63;;;6.00;;
24801;SDS011;12898;50.520;12.152;2023-05-10T07:05:11;8.73;;;5.38;;
24801;SDS011;12898;50.520;12.152;2023-05-10T07:07:37;12.02;;;5.80;;
24801;SDS011;12898;50.520;12.152;2023-05-10T07:10:07;9.07;;;5.50;;
24801;SDS011;12898;50.520;12.152;2023-05-10T07:12:35;10.80;;;6.70;;
24801;SDS011;12898;50.520;12.152;2023-05-10T07:15:08;9.75;;;6.35;;
24801;SDS011;12898;50.520;12.152;2023-05-10T07:17:35;12.32;;;6.15;;
24801;SDS011;12898;50.520;12.152;2023-05-10T07:20:00;12.30;;;6.03;;
24801;SDS011;12898;50.520;12.152;2023-05-10T07:22:27;10.18;;;6.38;;
24801;SDS011;12898;50.520;12.152;2023-05-10T07:24:54;10.95;;;6.13;;
24801;SDS011;12898;50.520;12.152;2023-05-10T07:27:20;10.13;;;5.93;;
24801;SDS011;12898;50.520;12.152;2023-05-10T07:29:45;10.88;;;6.65;;
24801;SDS011;12898;50.520;12.152;2023-05-10T07:32:11;10.32;;;6.28;;
24801;SDS011;12898;50.520;12.152;2023-05-10T07:34:37;11.07;;;5.95;;
24801;SDS011;12898;50.520;12.152;2023-05-10T07:37:02;14.43;;;7.25;;
24801;SDS011;12898;50.520;12.152;2023-05-10T07:39:28;11.63;;;6.75;;
24801;SDS011;12898;50.520;12.152;2023-05-10T07:41:56;11.98;;;6.20;;
24801;SDS011;12898;50.520;12.152;2023-05-10T07:44:22;11.75;;;6.20;;
24801;SDS011;12898;50.520;12.152;2023-05-10T07:46:48;11.60;;;6.40;;
24801;SDS011;12898;50.520;12.152;2023-05-10T07:49:14;12.50;;;6.55;;
24801;SDS011;12898;50.520;12.152;2023-05-10T07:51:40;10.10;;;6.18;;
24801;SDS011;12898;50.520;12.152;2023-05-10T07:54:07;11.35;;;6.15;;
24801;SDS011;12898;50.520;12.152;2023-05-10T07:56:33;11.13;;;6.38;;
24801;SDS011;12898;50.520;12.152;2023-05-10T07:58:59;11.63;;;6.30;;
24801;SDS011;12898;50.520;12.152;2023-05-10T08:01:26;11.40;;;6.43;;
24801;SDS011;12898;50.520;12.152;2023-05-10T08:03:55;12.10;;;6.30;;
24801;SDS011;12898;50.520;12.152;2023-05-10T08:06:21;11.00;;;6.32;;
24801;SDS011;12898;50.520;12.152;2023-05-10T08:08:47;9.55;;;6.13;;
24801;SDS011;12898;50.520;12.152;2023-05-10T08:11:18;13.27;;;6.90;;
24801;SDS011;12898;50.520;12.152;2023-05-10T08:13:48;11.73;;;6.22;;
24801;SDS011;12898;50.520;12.152;2023-05-10T08:16:15;11.40;;;6.63;;
24801;SDS011;12898;50.520;12.152;2023-05-10T08:18:42;13.02;;;6.63;;
24801;SDS011;12898;50.520;12.152;2023-05-10T08:21:10;9.85;;;6.53;;
24801;SDS011;12898;50.520;12.152;2023-05-10T08:23:38;11.50;;;6.18;;
24801;SDS011;12898;50.520;12.152;2023-05-10T08:26:04;10.80;;;6.32;;
24801;SDS011;12898;50.520;12.152;2023-05-10T08:28:30;9.73;;;5.78;;
24801;SDS011;12898;50.520;12.152;2023-05-10T08:30:56;11.38;;;6.85;;
24801;SDS011;12898;50.520;12.152;2023-05-10T08:33:21;16.50;;;6.78;;
24801;SDS011;12898;50.520;12.152;2023-05-10T08:35:50;12.07;;;6.80;;
24801;SDS011;12898;50.520;12.152;2023-05-10T08:38:15;10.07;;;6.22;;
24801;SDS011;12898;50.520;12.152;2023-05-10T08:40:43;12.45;;;6.70;;
24801;SDS011;12898;50.520;12.152;2023-05-10T08:43:10;11.18;;;6.53;;
24801;SDS011;12898;50.520;12.152;2023-05-10T08:45:40;11.35;;;6.07;;
24801;SDS011;12898;50.520;12.152;2023-05-10T08:48:08;9.98;;;6.32;;
24801;SDS011;12898;50.520;12.152;2023-05-10T08:50:40;11.07;;;6.20;;
24801;SDS011;12898;50.520;12.152;2023-05-10T08:53:11;10.60;;;5.95;;
24801;SDS011;12898;50.520;12.152;2023-05-10T08:55:39;9.30;;;5.95;;
24801;SDS011;12898;50.520;12.152;2023-05-10T08:58:07;9.50;;;6.00;;
24801;SDS011;12898;50.520;12.152;2023-05-10T09:00:33;12.02;;;6.20;;
24801;SDS011;12898;50.520;12.152;2023-05-10T09:03:01;9.95;;;6.32;;
24801;SDS011;12898;50.520;12.152;2023-05-10T09:05:28;12.25;;;6.72;;
24801;SDS011;12898;50.520;12.152;2023-05-10T09:07:53;9.15;;;5.80;;
24801;SDS011;12898;50.520;12.152;2023-05-10T09:10:20;11.60;;;6.35;;
24801;SDS011;12898;50.520;12.152;2023-05-10T09:12:46;10.18;;;6.28;;
24801;SDS011;12898;50.520;12.152;2023-05-10T09:15:16;8.63;;;5.20;;
24801;SDS011;12898;50.520;12.152;2023-05-10T09:17:44;11.07;;;5.78;;
24801;SDS011;12898;50.520;12.152;2023-05-10T09:20:11;9.38;;;6.20;;
24801;SDS011;12898;50.520;12.152;2023-05-10T09:22:37;11.18;;;5.80;;
24801;SDS011;12898;50.520;12.152;2023-05-10T09:25:10;9.57;;;5.70;;
24801;SDS011;12898;50.520;12.152;2023-05-10T09:27:39;13.18;;;6.30;;
24801;SDS011;12898;50.520;12.152;2023-05-10T09:30:10;10.93;;;6.25;;
24801;SDS011;12898;50.520;12.152;2023-05-10T09:32:42;9.65;;;5.70;;
24801;SDS011;12898;50.520;12.152;2023-05-10T09:35:15;9.07;;;5.93;;
24801;SDS011;12898;50.520;12.152;2023-05-10T09:37:44;8.85;;;5.75;;
24801;SDS011;12898;50.520;12.152;2023-05-10T09:40:14;12.35;;;6.35;;
24801;SDS011;12898;50.520;12.152;2023-05-10T09:42:55;10.98;;;6.45;;
24801;SDS011;12898;50.520;12.152;2023-05-10T09:45:31;10.95;;;5.88;;
24801;SDS011;12898;50.520;12.152;2023-05-10T09:48:00;9.68;;;5.90;;
24801;SDS011;12898;50.520;12.152;2023-05-10T09:50:29;9.50;;;5.97;;
24801;SDS011;12898;50.520;12.152;2023-05-10T09:52:56;9.50;;;5.95;;
24801;SDS011;12898;50.520;12.152;2023-05-10T09:55:43;10.50;;;5.80;;
24801;SDS011;12898;50.520;12.152;2023-05-10T09:58:11;8.32;;;5.40;;
24801;SDS011;12898;50.520;12.152;2023-05-10T10:00:41;10.07;;;5.75;;
24801;SDS011;12898;50.520;12.152;2023-05-10T10:03:12;9.75;;;6.15;;
24801;SDS011;12898;50.520;12.152;2023-05-10T10:05:41;9.23;;;5.97;;
24801;SDS011;12898;50.520;12.152;2023-05-10T10:08:08;8.93;;;5.72;;
24801;SDS011;12898;50.520;12.152;2023-05-10T10:10:35;9.50;;;6.18;;
24801;SDS011;12898;50.520;12.152;2023-05-10T10:13:01;8.57;;;5.50;;
24801;SDS011;12898;50.520;12.152;2023-05-10T10:15:27;10.70;;;6.20;;
24801;SDS011;12898;50.520;12.152;2023-05-10T10:17:53;9.82;;;6.72;;
24801;SDS011;12898;50.520;12.152;2023-05-10T10:20:19;12.30;;;7.10;;
24801;SDS011;12898;50.520;12.152;2023-05-10T10:22:47;10.10;;;6.68;;
24801;SDS011;12898;50.520;12.152;2023-05-10T10:25:17;10.52;;;6.75;;
24801;SDS011;12898;50.520;12.152;2023-05-10T10:35:31;9.52;;;6.10;;
24801;SDS011;12898;50.520;12.152;2023-05-10T10:37:58;11.52;;;6.18;;
24801;SDS011;12898;50.520;12.152;2023-05-10T10:40:27;10.55;;;6.10;;
24801;SDS011;12898;50.520;12.152;2023-05-10T10:42:59;10.27;;;6.03;;
24801;SDS011;12898;50.520;12.152;2023-05-10T10:48:40;9.05;;;6.07;;
24801;SDS011;12898;50.520;12.152;2023-05-10T10:51:08;9.15;;;6.18;;
24801;SDS011;12898;50.520;12.152;2023-05-10T10:53:34;10.90;;;6.30;;
24801;SDS011;12898;50.520;12.152;2023-05-10T10:56:12;9.45;;;5.88;;
24801;SDS011;12898;50.520;12.152;2023-05-10T10:58:40;8.43;;;5.55;;
24801;SDS011;12898;50.520;12.152;2023-05-10T11:01:15;9.48;;;5.85;;
24801;SDS011;12898;50.520;12.152;2023-05-10T11:04:16;8.98;;;5.85;;
24801;SDS011;12898;50.520;12.152;2023-05-10T11:06:35;8.25;;;5.22;;
24801;SDS011;12898;50.520;12.152;2023-05-10T11:09:08;8.35;;;5.57;;
24801;SDS011;12898;50.520;12.152;2023-05-10T11:11:37;9.27;;;5.75;;
24801;SDS011;12898;50.520;12.152;2023-05-10T11:14:19;10.00;;;5.72;;
24801;SDS011;12898;50.520;12.152;2023-05-10T11:16:47;8.50;;;5.55;;
24801;SDS011;12898;50.520;12.152;2023-05-10T11:19:13;8.70;;;5.30;;
24801;SDS011;12898;50.520;12.152;2023-05-10T11:24:20;8.52;;;5.75;;
24801;SDS011;12898;50.520;12.152;2023-05-10T11:26:51;8.98;;;5.70;;
24801;SDS011;12898;50.520;12.152;2023-05-10T11:29:17;10.90;;;6.10;;
24801;SDS011;12898;50.520;12.152;2023-05-10T11:31:43;7.38;;;5.50;;
24801;SDS011;12898;50.520;12.152;2023-05-10T11:34:10;8.77;;;5.68;;
24801;SDS011;12898;50.520;12.152;2023-05-10T11:36:37;10.55;;;5.88;;
24801;SDS011;12898;50.520;12.152;2023-05-10T11:39:03;9.20;;;5.80;;
24801;SDS011;12898;50.520;12.152;2023-05-10T11:41:30;8.63;;;5.82;;
24801;SDS011;12898;50.520;12.152;2023-05-10T11:43:58;8.50;;;5.35;;
24801;SDS011;12898;50.520;12.152;2023-05-10T11:46:30;7.13;;;4.60;;
24801;SDS011;12898;50.520;12.152;2023-05-10T11:49:00;6.57;;;3.95;;
24801;SDS011;12898;50.520;12.152;2023-05-10T11:51:29;5.32;;;3.88;;
24801;SDS011;12898;50.520;12.152;2023-05-10T11:53:59;7.15;;;4.85;;
24801;SDS011;12898;50.520;12.152;2023-05-10T11:56:24;6.95;;;4.10;;
24801;SDS011;12898;50.520;12.152;2023-05-10T11:58:55;5.82;;;4.28;;
24801;SDS011;12898;50.520;12.152;2023-05-10T12:01:23;8.63;;;4.50;;
24801;SDS011;12898;50.520;12.152;2023-05-10T12:03:53;5.05;;;3.85;;
24801;SDS011;12898;50.520;12.152;2023-05-10T12:06:25;6.88;;;4.30;;
24801;SDS011;12898;50.520;12.152;2023-05-10T12:08:54;8.63;;;4.40;;
24801;SDS011;12898;50.520;12.152;2023-05-10T12:11:20;6.22;;;4.47;;
24801;SDS011;12898;50.520;12.152;2023-05-10T12:13:50;7.40;;;4.95;;
24801;SDS011;12898;50.520;12.152;2023-05-10T12:16:17;6.55;;;4.93;;
24801;SDS011;12898;50.520;12.152;2023-05-10T12:18:43;8.15;;;5.35;;
24801;SDS011;12898;50.520;12.152;2023-05-10T12:21:10;8.35;;;5.00;;
24801;SDS011;12898;50.520;12.152;2023-05-10T12:23:37;6.35;;;4.60;;
24801;SDS011;12898;50.520;12.152;2023-05-10T12:26:04;8.85;;;5.05;;
24801;SDS011;12898;50.520;12.152;2023-05-10T12:28:34;7.05;;;4.70;;
24801;SDS011;12898;50.520;12.152;2023-05-10T12:31:00;8.60;;;4.43;;
24801;SDS011;12898;50.520;12.152;2023-05-10T12:33:27;6.35;;;4.40;;
24801;SDS011;12898;50.520;12.152;2023-05-10T12:36:10;7.43;;;5.30;;
24801;SDS011;12898;50.520;12.152;2023-05-10T12:38:39;9.60;;;5.68;;
24801;SDS011;12898;50.520;12.152;2023-05-10T12:41:13;7.03;;;5.10;;
24801;SDS011;12898;50.520;12.152;2023-05-10T12:43:41;9.43;;;5.43;;
24801;SDS011;12898;50.520;12.152;2023-05-10T12:46:13;9.23;;;4.95;;
24801;SDS011;12898;50.520;12.152;2023-05-10T12:48:41;7.10;;;4.78;;
24801;SDS011;12898;50.520;12.152;2023-05-10T12:51:10;7.78;;;5.18;;
24801;SDS011;12898;50.520;12.152;2023-05-10T12:53:42;8.43;;;4.95;;
24801;SDS011;12898;50.520;12.152;2023-05-10T12:56:08;7.05;;;5.20;;
24801;SDS011;12898;50.520;12.152;2023-05-10T12:58:34;7.13;;;5.22;;
24801;SDS011;12898;50.520;12.152;2023-05-10T13:01:00;7.57;;;5.28;;
24801;SDS011;12898;50.520;12.152;2023-05-10T13:03:26;7.47;;;4.90;;
24801;SDS011;12898;50.520;12.152;2023-05-10T13:05:51;6.75;;;5.30;;
24801;SDS011;12898;50.520;12.152;2023-05-10T13:08:18;7.25;;;4.97;;
24801;SDS011;12898;50.520;12.152;2023-05-10T13:10:45;7.55;;;5.13;;
24801;SDS011;12898;50.520;12.152;2023-05-10T13:13:11;8.32;;;5.57;;
24801;SDS011;12898;50.520;12.152;2023-05-10T13:15:39;10.00;;;5.47;;
24801;SDS011;12898;50.520;12.152;2023-05-10T13:18:05;11.30;;;5.55;;
24801;SDS011;12898;50.520;12.152;2023-05-10T13:20:32;8.82;;;5.95;;
24801;SDS011;12898;50.520;12.152;2023-05-10T13:22:57;8.88;;;5.85;;
24801;SDS011;12898;50.520;12.152;2023-05-10T13:25:23;8.30;;;5.97;;
24801;SDS011;12898;50.520;12.152;2023-05-10T13:27:49;8.35;;;6.03;;
24801;SDS011;12898;50.520;12.152;2023-05-10T13:30:15;8.10;;;5.50;;
24801;SDS011;12898;50.520;12.152;2023-05-10T13:32:40;13.00;;;6.38;;
24801;SDS011;12898;50.520;12.152;2023-05-10T13:35:07;9.70;;;6.60;;
24801;SDS011;12898;50.520;12.152;2023-05-10T13:37:36;8.48;;;5.45;;
24801;SDS011;12898;50.520;12.152;2023-05-10T13:40:02;8.35;;;5.93;;
24801;SDS011;12898;50.520;12.152;2023-05-10T13:42:29;9.93;;;6.38;;
24801;SDS011;12898;50.520;12.152;2023-05-10T13:44:56;9.52;;;6.80;;
24801;SDS011;12898;50.520;12.152;2023-05-10T13:47:22;10.73;;;7.40;;
24801;SDS011;12898;50.520;12.152;2023-05-10T13:49:48;9.63;;;6.15;;
24801;SDS011;12898;50.520;12.152;2023-05-10T13:52:14;7.85;;;5.43;;
24801;SDS011;12898;50.520;12.152;2023-05-10T13:54:40;5.50;;;3.85;;
24801;SDS011;12898;50.520;12.152;2023-05-10T13:57:06;6.38;;;4.00;;
24801;SDS011;12898;50.520;12.152;2023-05-10T13:59:32;6.95;;;4.50;;
24801;SDS011;12898;50.520;12.152;2023-05-10T14:02:01;7.55;;;5.32;;
24801;SDS011;12898;50.520;12.152;2023-05-10T14:04:27;6.85;;;4.63;;
24801;SDS011;12898;50.520;12.152;2023-05-10T14:06:54;9.82;;;4.47;;
24801;SDS011;12898;50.520;12.152;2023-05-10T14:09:19;5.38;;;3.88;;
24801;SDS011;12898;50.520;12.152;2023-05-10T14:11:45;5.35;;;4.05;;
24801;SDS011;12898;50.520;12.152;2023-05-10T14:14:11;5.65;;;3.90;;
24801;SDS011;12898;50.520;12.152;2023-05-10T14:16:42;5.35;;;3.92;;
24801;SDS011;12898;50.520;12.152;2023-05-10T14:19:09;5.22;;;3.88;;
24801;SDS011;12898;50.520;12.152;2023-05-10T14:21:36;6.60;;;3.75;;
24801;SDS011;12898;50.520;12.152;2023-05-10T14:24:02;5.28;;;3.92;;
24801;SDS011;12898;50.520;12.152;2023-05-10T14:26:30;4.63;;;3.72;;
24801;SDS011;12898;50.520;12.152;2023-05-10T14:28:56;6.50;;;3.92;;
24801;SDS011;12898;50.520;12.152;2023-05-10T14:31:21;5.03;;;3.83;;
24801;SDS011;12898;50.520;12.152;2023-05-10T14:33:49;7.82;;;5.00;;
24801;SDS011;12898;50.520;12.152;2023-05-10T14:36:15;35.45;;;11.88;;
24801;SDS011;12898;50.520;12.152;2023-05-10T14:38:44;14.38;;;7.15;;
24801;SDS011;12898;50.520;12.152;2023-05-10T14:41:09;12.80;;;7.35;;
24801;SDS011;12898;50.520;12.152;2023-05-10T14:43:39;10.43;;;7.10;;
24801;SDS011;12898;50.520;12.152;2023-05-10T14:46:05;7.20;;;4.97;;
24801;SDS011;12898;50.520;12.152;2023-05-10T14:48:31;12.80;;;9.85;;
24801;SDS011;12898;50.520;12.152;2023-05-10T14:50:56;7.25;;;4.22;;
24801;SDS011;12898;50.520;12.152;2023-05-10T14:53:22;7.60;;;3.88;;
24801;SDS011;12898;50.520;12.152;2023-05-10T14:55:48;5.80;;;3.75;;
24801;SDS011;12898;50.520;12.152;2023-05-10T14:58:13;5.28;;;3.78;;
24801;SDS011;12898;50.520;12.152;2023-05-10T15:00:40;6.03;;;4.10;;
24801;SDS011;12898;50.520;12.152;2023-05-10T15:03:06;8.23;;;3.75;;
24801;SDS011;12898;50.520;12.152;2023-05-10T15:05:34;6.57;;;4.10;;
24801;SDS011;12898;50.520;12.152;2023-05-10T15:08:02;6.35;;;3.88;;